Time;durP1;ratioP1;P1;durP2;ratioP2;P2;SDS_P1;SDS_P2;PMS_P1;PMS_P2;Temp;Humidity;BMP_temperature;BMP_pressure;BME280_temperature;BME280_humidity;BME280_pressure;Samples;Min_cycle;Max_cycle;Signal;HPM_P1;HPM_P2
2023/01/29 00:00:08;;;;;;;21.55;15.48;;;;;;;2.28;85.69;102957.00;4720955;30;20573;-65
2023/01/29 00:02:39;;;;;;;18.10;13.23;;;;;;;2.25;85.64;102950.09;4716366;30;20057;-65
2023/01/29 00:05:07;;;;;;;20.08;14.75;;;;;;;2.22;85.41;102946.91;4714455;30;20499;-65
2023/01/29 00:07:54;;;;;;;18.45;13.98;;;;;;;2.17;87.46;102936.63;4716420;30;20057;-65
2023/01/29 00:10:26;;;;;;;18.65;15.00;;;;;;;2.19;87.53;102934.63;4705917;30;20063;-64
2023/01/29 00:12:54;;;;;;;20.15;16.95;;;;;;;2.15;86.36;102937.78;4730923;30;20422;-59
2023/01/29 00:15:21;;;;;;;20.83;17.02;;;;;;;2.13;85.97;102946.00;4732885;30;20065;-59
2023/01/29 00:17:49;;;;;;;19.95;14.88;;;;;;;2.13;86.66;102937.94;4711965;30;20487;-64
2023/01/29 00:20:17;;;;;;;18.70;15.20;;;;;;;2.12;86.18;102930.88;4732032;30;20061;-63
2023/01/29 00:22:45;;;;;;;19.23;13.80;;;;;;;2.15;88.10;102927.84;4720985;30;20122;-65
2023/01/29 00:25:13;;;;;;;18.48;14.50;;;;;;;2.15;87.04;102932.41;4718421;30;20069;-66
2023/01/29 00:27:40;;;;;;;19.77;14.80;;;;;;;2.13;87.01;102930.69;4719874;30;20479;-65
2023/01/29 00:30:11;;;;;;;19.67;15.25;;;;;;;2.11;86.60;102921.09;4718476;30;20061;-65
2023/01/29 00:32:40;;;;;;;21.88;17.73;;;;;;;2.07;85.77;102920.59;4689990;30;20128;-64
2023/01/29 00:35:08;;;;;;;22.23;17.98;;;;;;;2.05;85.56;102922.59;4719438;30;20063;-65
2023/01/29 00:37:36;;;;;;;20.85;16.50;;;;;;;2.05;85.63;102925.28;4718169;30;20128;-65
2023/01/29 00:40:05;;;;;;;20.15;15.27;;;;;;;2.06;85.21;102918.06;4703164;30;20065;-65
2023/01/29 00:45:18;;;;;;;;;;;;;;;2.07;86.32;102907.16;4705456;30;20065;-65
2023/01/29 00:47:46;;;;;;;20.73;16.35;;;;;;;2.03;85.53;102903.09;4705822;30;20288;-65
2023/01/29 00:50:14;;;;;;;22.13;17.08;;;;;;;1.99;85.31;102893.66;4703721;30;20076;-65
2023/01/29 00:52:42;;;;;;;21.23;17.10;;;;;;;1.97;85.51;102892.13;4701761;30;20045;-66
2023/01/29 00:55:10;;;;;;;21.25;17.30;;;;;;;1.98;85.68;102888.44;4702981;30;20049;-65
2023/01/29 00:57:39;;;;;;;17.35;13.50;;;;;;;2.00;86.76;102889.97;4700411;30;20053;-65
2023/01/29 01:00:10;;;;;;;21.10;15.35;;;;;;;1.97;85.83;102876.84;4701407;30;20109;-65
2023/01/29 01:05:26;;;;;;;21.35;16.58;;;;;;;1.95;85.83;102883.38;4715327;30;20048;-66
2023/01/29 01:07:56;;;;;;;22.33;17.25;;;;;;;1.95;85.94;102889.63;4718137;30;20084;-65
2023/01/29 01:10:30;;;;;;;18.58;13.88;;;;;;;1.97;85.87;102892.97;4718111;30;20053;-65
2023/01/29 01:13:00;;;;;;;19.83;14.73;;;;;;;1.97;85.86;102887.59;4701435;30;20092;-66
2023/01/29 01:15:32;;;;;;;22.38;16.25;;;;;;;1.96;85.75;102891.28;4713469;30;20059;-65
2023/01/29 01:18:01;;;;;;;24.50;17.40;;;;;;;1.95;85.31;102883.38;4700255;30;20052;-66
2023/01/29 01:20:30;;;;;;;20.27;16.80;;;;;;;1.94;84.99;102884.38;4701466;30;20053;-65
2023/01/29 01:22:58;;;;;;;20.83;17.25;;;;;;;1.92;85.35;102884.53;4674240;30;20049;-65
2023/01/29 01:25:27;;;;;;;20.63;16.95;;;;;;;1.91;85.28;102885.56;4702719;30;20057;-64
2023/01/29 01:27:56;;;;;;;23.17;17.52;;;;;;;1.87;85.33;102881.50;4702444;30;20045;-65
2023/01/29 01:30:24;;;;;;;19.75;16.20;;;;;;;1.87;85.64;102890.38;4717286;30;20057;-65
2023/01/29 01:32:52;;;;;;;20.33;16.40;;;;;;;1.91;85.49;102882.88;4717182;30;20130;-65
2023/01/29 01:35:20;;;;;;;21.08;17.17;;;;;;;1.91;85.05;102890.94;4702937;30;20496;-65
2023/01/29 01:37:48;;;;;;;22.73;16.20;;;;;;;1.88;85.01;102891.25;4702918;30;20049;-65
2023/01/29 01:40:19;;;;;;;22.17;17.70;;;;;;;1.85;85.25;102892.41;4701773;30;20476;-65
2023/01/29 01:42:52;;;;;;;21.30;17.23;;;;;;;1.81;85.41;102888.34;4717257;30;20146;-66
2023/01/29 01:45:25;;;;;;;21.52;17.65;;;;;;;1.80;85.73;102880.44;4717507;30;20064;-65
2023/01/29 01:47:59;;;;;;;22.52;17.67;;;;;;;1.80;85.96;102889.34;4703979;30;20049;-65
2023/01/29 01:50:32;;;;;;;21.50;16.95;;;;;;;1.79;85.81;102890.34;4718196;30;20089;-65
2023/01/29 01:53:04;;;;;;;23.42;18.38;;;;;;;1.78;85.84;102893.19;4717207;30;20509;-66
2023/01/29 01:55:34;;;;;;;22.17;17.88;;;;;;;1.77;86.13;102891.50;4702534;30;20060;-66
2023/01/29 01:58:08;;;;;;;22.05;17.17;;;;;;;1.80;86.01;102888.50;4703606;30;20128;-66
2023/01/29 02:00:36;;;;;;;23.52;18.35;;;;;;;1.80;85.90;102892.03;4702136;30;20056;-64
2023/01/29 02:11:52;;;;;;;23.75;17.65;;;;;;;1.80;86.31;102904.63;4704413;30;20057;-66
2023/01/29 02:14:21;;;;;;;21.42;17.45;;;;;;;1.80;86.02;102908.16;4716997;30;20547;-66
2023/01/29 02:16:48;;;;;;;20.00;16.85;;;;;;;1.80;86.05;102905.47;4703951;30;20491;-66
2023/01/29 02:19:40;;;;;;;22.23;16.80;;;;;;;1.82;86.49;102900.78;4687732;30;20057;-64
2023/01/29 02:22:27;;;;;;;21.27;16.92;;;;;;;1.83;86.48;102907.84;4709596;30;20102;-64
2023/01/29 02:25:09;;;;;;;21.08;17.20;;;;;;;1.84;86.28;102914.91;4717919;30;20450;-65
2023/01/29 02:27:45;;;;;;;20.35;16.65;;;;;;;1.83;86.27;102913.22;4716542;30;20060;-65
2023/01/29 02:30:21;;;;;;;22.20;18.53;;;;;;;1.84;86.48;102909.53;4689277;30;20076;-66
2023/01/29 02:32:57;;;;;;;;;;;;;;;1.89;86.70;102911.75;4719393;30;20311;-65
2023/01/29 02:35:31;;;;;;;21.55;16.98;;;;;;;1.90;86.59;102913.41;4718452;30;19989;-66
2023/01/29 02:38:18;;;;;;;21.60;16.75;;;;;;;1.89;86.73;102907.22;4704899;30;20560;-66
2023/01/29 02:41:33;;;;;;;20.45;17.08;;;;;;;1.88;86.74;102899.31;4702836;30;20057;-65
2023/01/29 02:44:22;;;;;;;21.42;16.88;;;;;;;1.85;86.76;102905.00;4704704;30;20094;-64
2023/01/29 02:46:59;;;;;;;22.10;17.15;;;;;;;1.85;86.73;102902.31;4703202;30;20462;-66
2023/01/29 02:49:46;;;;;;;22.98;17.05;;;;;;;1.85;86.81;102902.31;4691499;30;20053;-65
2023/01/29 02:52:26;;;;;;;21.23;16.20;;;;;;;1.88;87.17;102900.16;4720434;30;20079;-65
2023/01/29 02:55:03;;;;;;;22.58;18.20;;;;;;;1.89;87.05;102906.38;4720738;30;20085;-64
2023/01/29 02:57:41;;;;;;;20.42;16.25;;;;;;;1.88;87.01;102896.63;4690556;30;20128;-64
2023/01/29 03:00:19;;;;;;;18.95;15.32;;;;;;;1.89;87.16;102901.81;4704969;30;20515;-64
2023/01/29 03:02:56;;;;;;;20.60;15.27;;;;;;;1.91;87.10;102890.94;4719895;30;20128;-65
2023/01/29 03:05:32;;;;;;;19.13;14.77;;;;;;;1.95;87.34;102894.13;4702133;30;20050;-64
2023/01/29 03:08:09;;;;;;;19.35;13.75;;;;;;;1.96;87.63;102902.03;4718350;30;20107;-64
2023/01/29 03:10:44;;;;;;;20.80;17.15;;;;;;;1.95;87.04;102895.00;4690431;30;20071;-65
2023/01/29 03:13:24;;;;;;;18.25;15.02;;;;;;;1.95;87.20;102897.69;4704958;30;20079;-66
2023/01/29 03:16:01;;;;;;;18.83;15.50;;;;;;;1.97;87.17;102897.50;4702319;30;20056;-66
2023/01/29 03:18:45;;;;;;;19.63;16.35;;;;;;;1.96;87.38;102890.44;4704447;30;20416;-65
2023/01/29 03:32:47;;;;;;;23.45;18.67;;;;;;;1.95;87.48;102896.81;4707011;30;20056;-65
2023/01/29 03:35:21;;;;;;;22.63;18.45;;;;;;;1.95;87.11;102892.31;4719059;30;20047;-66
2023/01/29 03:37:49;;;;;;;20.42;15.77;;;;;;;1.95;87.33;102883.38;4701259;30;20111;-65
2023/01/29 03:40:17;;;;;;;22.15;17.33;;;;;;;1.96;87.56;102891.28;4713731;30;20075;-66
2023/01/29 03:42:59;;;;;;;19.65;15.93;;;;;;;1.97;87.43;102882.22;4700974;30;20052;-66
2023/01/29 03:45:34;;;;;;;22.92;18.75;;;;;;;1.97;87.43;102876.84;4704498;30;20057;-65
2023/01/29 03:48:35;;;;;;;22.48;18.67;;;;;;;1.94;87.28;102871.78;4709972;30;20057;-64
2023/01/29 03:51:33;;;;;;;23.27;18.70;;;;;;;1.92;87.65;102884.53;4691410;30;20052;-63
2023/01/29 03:54:14;;;;;;;20.83;17.13;;;;;;;1.95;87.85;102876.19;4729398;30;20473;-59
2023/01/29 03:57:10;;;;;;;20.25;18.05;;;;;;;1.98;87.43;102883.06;4721159;30;20053;-64
2023/01/29 03:59:40;;;;;;;;;;;;;;;2.00;87.97;102860.41;4731607;30;20077;-62
2023/01/29 04:02:51;;;;;;;23.67;19.08;;;;;;;1.99;87.64;102864.06;4698355;30;19934;-65
2023/01/29 04:05:21;;;;;;;19.33;15.77;;;;;;;2.00;88.03;102852.34;4718535;30;20384;-65
2023/01/29 04:08:22;;;;;;;18.63;14.60;;;;;;;2.03;89.03;102849.31;4716860;30;20090;-66
2023/01/29 04:10:51;;;;;;;21.20;17.15;;;;;;;2.01;88.53;102851.31;4702811;30;20080;-65
2023/01/29 04:13:20;;;;;;;22.17;18.10;;;;;;;1.98;88.65;102856.19;4716819;30;20061;-65
2023/01/29 04:15:55;;;;;;;23.15;19.65;;;;;;;1.95;88.00;102840.38;4716987;30;20053;-66
2023/01/29 04:18:47;;;;;;;18.38;15.10;;;;;;;1.94;88.75;102844.06;4699888;30;20045;-66
2023/01/29 04:21:16;;;;;;;20.40;16.88;;;;;;;1.91;88.60;102846.06;4715438;30;20582;-65
2023/01/29 04:23:44;;;;;;;20.90;17.52;;;;;;;1.94;89.18;102839.53;4714155;30;20133;-66
2023/01/29 04:26:51;;;;;;;18.13;14.55;;;;;;;1.99;90.49;102836.34;4717359;30;20061;-65
2023/01/29 04:29:28;;;;;;;18.70;14.57;;;;;;;2.02;91.32;102836.03;4716434;30;20396;-66
2023/01/29 04:32:13;;;;;;;18.55;15.30;;;;;;;2.02;91.18;102831.50;4700441;30;20045;-64
2023/01/29 04:35:11;;;;;;;19.35;14.30;;;;;;;2.07;94.00;102841.78;4694258;30;20055;-65
2023/01/29 04:37:56;;;;;;;;;;;;;;;2.13;100.00;102823.13;4727295;30;20115;-65
2023/01/29 04:40:25;;;;;;;;;;;;;;;2.20;100.00;102817.97;4714169;30;19934;-65
2023/01/29 04:43:01;;;;;;;17.20;13.48;;;;;;;2.11;99.42;102816.25;4709130;30;20013;-65
2023/01/29 04:45:51;;;;;;;20.98;16.77;;;;;;;2.05;97.93;102809.69;4714290;30;20563;-65
2023/01/29 04:48:24;;;;;;;19.17;15.75;;;;;;;2.02;96.36;102799.25;4717326;30;20060;-65
2023/01/29 04:51:00;;;;;;;18.73;15.35;;;;;;;2.05;98.66;102793.53;4714978;30;20104;-65
2023/01/29 04:54:06;;;;;;;18.55;15.00;;;;;;;2.06;99.68;102794.38;4701219;30;20069;-64
2023/01/29 04:56:36;;;;;;;20.67;16.17;;;;;;;2.01;96.91;102786.78;4686145;30;20057;-65
2023/01/29 04:59:11;;;;;;;23.45;19.02;;;;;;;1.97;95.16;102790.81;4701287;30;20504;-64
2023/01/29 05:01:39;;;;;;;22.35;18.63;;;;;;;1.96;95.52;102789.13;4699972;30;20060;-65
2023/01/29 05:04:13;;;;;;;20.83;17.35;;;;;;;1.92;93.88;102787.75;4702371;30;20385;-65
2023/01/29 05:06:41;;;;;;;25.33;20.98;;;;;;;1.91;93.43;102808.44;4675043;30;20138;-65
2023/01/29 05:09:09;;;;;;;24.23;19.52;;;;;;;1.88;92.88;102798.00;4717076;30;20060;-66
2023/01/29 05:11:37;;;;;;;25.85;19.70;;;;;;;1.91;93.00;102802.22;4703066;30;20057;-65
2023/01/29 05:14:07;;;;;;;21.48;18.42;;;;;;;1.93;93.07;102797.53;4687819;30;20136;-65
2023/01/29 05:16:43;;;;;;;22.73;18.90;;;;;;;1.93;92.41;102784.09;4716602;30;20053;-65
2023/01/29 05:19:12;;;;;;;21.88;18.30;;;;;;;1.92;92.01;102783.25;4714113;30;20113;-64
2023/01/29 05:21:42;;;;;;;24.08;18.60;;;;;;;1.97;92.97;102774.69;4713877;30;20084;-64
2023/01/29 05:24:19;;;;;;;26.15;20.80;;;;;;;1.94;92.62;102766.94;4713629;30;20500;-65
2023/01/29 05:29:34;;;;;;;24.35;19.27;;;;;;;1.91;92.51;102772.66;4715036;30;20072;-64
2023/01/29 05:32:02;;;;;;;23.88;18.83;;;;;;;1.96;92.92;102764.09;4702332;30;20052;-64
2023/01/29 05:34:30;;;;;;;22.88;19.10;;;;;;;1.99;92.53;102767.28;4702028;30;20133;-64
2023/01/29 05:36:58;;;;;;;21.58;17.10;;;;;;;1.99;92.96;102761.91;4717383;30;20048;-65
2023/01/29 05:39:25;;;;;;;24.70;19.67;;;;;;;2.01;92.63;102769.84;4716009;30;20442;-64
2023/01/29 05:41:53;;;;;;;23.45;18.52;;;;;;;2.02;92.63;102767.00;4684009;30;20070;-65
2023/01/29 05:44:21;;;;;;;25.80;21.58;;;;;;;2.01;92.29;102776.03;4680824;30;20050;-65
2023/01/29 05:46:49;;;;;;;24.33;19.40;;;;;;;2.01;92.64;102770.66;4693182;30;20061;-64
2023/01/29 05:49:19;;;;;;;27.75;21.60;;;;;;;2.04;92.56;102781.09;4672983;30;20558;-64
2023/01/29 05:51:47;;;;;;;28.00;22.45;;;;;;;2.04;92.55;102778.41;4681480;30;20081;-65
2023/01/29 05:54:14;;;;;;;26.63;22.45;;;;;;;2.01;92.59;102785.97;4682045;30;20058;-65
2023/01/29 05:56:42;;;;;;;29.38;23.40;;;;;;;2.02;92.67;102788.50;4679835;30;20165;-65
2023/01/29 05:59:10;;;;;;;30.40;23.15;;;;;;;2.04;92.51;102791.00;4678157;30;20497;-65
2023/01/29 06:01:37;;;;;;;24.67;20.67;;;;;;;2.04;92.65;102796.38;4682712;30;20187;-65
2023/01/29 06:04:05;;;;;;;28.15;22.65;;;;;;;2.04;92.67;102799.91;4680413;30;20054;-66
2023/01/29 06:06:33;;;;;;;29.58;23.45;;;;;;;2.03;92.79;102795.53;4681025;30;20555;-64
2023/01/29 06:09:01;;;;;;;29.42;22.80;;;;;;;2.04;92.86;102797.22;4683170;30;20064;-65
2023/01/29 06:11:29;;;;;;;29.10;23.92;;;;;;;2.06;93.01;102802.44;4681303;30;20053;-65
2023/01/29 06:13:57;;;;;;;28.10;22.95;;;;;;;2.06;92.88;102805.97;4677380;30;20062;-66
2023/01/29 06:16:24;;;;;;;29.25;22.85;;;;;;;2.06;92.89;102818.56;4692992;30;20050;-65
2023/01/29 06:18:52;;;;;;;28.20;22.35;;;;;;;2.05;92.84;102816.91;4682641;30;20054;-66
2023/01/29 06:21:20;;;;;;;26.25;21.73;;;;;;;2.08;93.45;102813.88;4678903;30;20516;-64
2023/01/29 06:23:47;;;;;;;23.00;17.70;;;;;;;2.13;93.39;102803.47;4682437;30;20531;-64
2023/01/29 06:26:15;;;;;;;22.40;16.92;;;;;;;2.15;93.77;102787.19;4682171;30;20054;-63
2023/01/29 06:28:44;;;;;;;29.75;24.45;;;;;;;2.10;93.40;102780.44;4679969;30;20060;-64
2023/01/29 06:31:12;;;;;;;32.45;26.00;;;;;;;2.00;94.09;102774.38;4694990;30;20136;-66
2023/01/29 06:34:02;;;;;;;31.60;26.05;;;;;;;1.96;94.42;102762.25;4683184;30;20074;-63
2023/01/29 06:36:30;;;;;;;32.03;26.77;;;;;;;1.91;94.65;102769.97;4682590;30;20133;-64
2023/01/29 06:38:57;;;;;;;31.25;25.45;;;;;;;1.89;94.85;102766.59;4681820;30;20150;-65
2023/01/29 06:41:25;;;;;;;29.15;23.55;;;;;;;1.90;95.23;102770.94;4705357;30;20450;-64
2023/01/29 06:43:53;;;;;;;30.95;23.00;;;;;;;1.98;95.39;102771.00;4702028;30;20076;-64
2023/01/29 06:46:21;;;;;;;24.52;16.83;;;;;;;2.08;97.21;102771.69;4714766;30;20049;-65
2023/01/29 06:48:48;;;;;;;21.08;15.70;;;;;;;2.16;98.02;102762.81;4716555;30;20491;-64
2023/01/29 06:51:17;;;;;;;23.17;19.05;;;;;;;2.24;100.00;102760.16;4692357;30;20071;-64
2023/01/29 06:53:44;;;;;;;24.60;18.23;;;;;;;2.28;100.00;102771.41;4728122;30;20068;-64
2023/01/29 06:56:13;;;;;;;21.25;16.95;;;;;;;2.24;99.65;102757.47;4731021;30;20057;-64
2023/01/29 06:58:43;;;;;;;20.98;17.25;;;;;;;2.25;100.00;102761.00;4731676;30;20057;-63
2023/01/29 07:01:12;;;;;;;22.13;17.38;;;;;;;2.27;100.00;102753.59;4727177;30;20053;-64
2023/01/29 07:03:59;;;;;;;18.80;13.10;;;;;;;2.37;100.00;102748.91;4723282;30;20076;-63
2023/01/29 07:06:28;;;;;;;20.95;17.17;;;;;;;2.31;100.00;102750.41;4719165;30;20128;-64
2023/01/29 07:08:56;;;;;;;22.48;17.83;;;;;;;2.28;100.00;102763.34;4716017;30;20466;-65
2023/01/29 07:11:24;;;;;;;26.85;20.70;;;;;;;2.26;100.00;102770.72;4701654;30;20454;-63
2023/01/29 07:13:52;;;;;;;23.23;19.95;;;;;;;2.24;100.00;102770.06;4701176;30;20080;-62
2023/01/29 07:16:19;;;;;;;27.48;22.60;;;;;;;2.22;100.00;102781.00;4719864;30;20518;-64
2023/01/29 07:18:47;;;;;;;22.60;17.30;;;;;;;2.26;100.00;102774.28;4720103;30;20422;-62
2023/01/29 07:21:15;;;;;;;26.05;19.85;;;;;;;2.25;100.00;102771.75;4717213;30;20064;-64
2023/01/29 07:23:43;;;;;;;22.95;18.42;;;;;;;2.24;99.54;102770.06;4718770;30;20053;-64
2023/01/29 07:26:11;;;;;;;26.67;21.48;;;;;;;2.24;98.96;102773.59;4719655;30;20087;-64
2023/01/29 07:28:39;;;;;;;26.98;19.80;;;;;;;2.24;97.78;102764.69;4719685;30;20053;-64
2023/01/29 07:31:09;;;;;;;25.90;21.25;;;;;;;2.25;97.91;102758.31;4676851;30;20057;-65
2023/01/29 07:33:36;;;;;;;29.42;23.95;;;;;;;2.24;96.83;102762.84;4705350;30;20080;-64
2023/01/29 07:36:08;;;;;;;24.85;17.92;;;;;;;2.26;97.96;102760.84;4714803;30;20521;-63
2023/01/29 07:38:36;;;;;;;24.33;17.80;;;;;;;2.30;99.27;102758.63;4720282;30;20106;-63
2023/01/29 07:41:04;;;;;;;21.83;18.20;;;;;;;2.31;99.28;102752.28;4726659;30;20559;-64
2023/01/29 07:43:32;;;;;;;22.27;17.30;;;;;;;2.44;100.00;102758.00;4705056;30;20065;-63
2023/01/29 07:46:02;;;;;;;23.20;19.15;;;;;;;2.39;100.00;102771.09;4736081;30;20053;-65
2023/01/29 07:48:31;;;;;;;24.50;16.45;;;;;;;2.36;100.00;102760.69;4722947;30;20049;-62
2023/01/29 07:50:59;;;;;;;24.45;17.75;;;;;;;2.35;100.00;102753.59;4721733;30;20080;-66
2023/01/29 07:53:28;;;;;;;23.55;17.98;;;;;;;2.35;100.00;102761.66;4719371;30;20060;-64
2023/01/29 07:55:56;;;;;;;24.60;19.70;;;;;;;2.34;100.00;102752.78;4717873;30;20064;-64
2023/01/29 07:58:24;;;;;;;21.63;16.77;;;;;;;2.37;100.00;102756.13;4719342;30;20095;-64
2023/01/29 08:00:52;;;;;;;16.17;10.57;;;;;;;2.46;100.00;102747.91;4719775;30;20057;-64
2023/01/29 08:03:20;;;;;;;21.98;17.85;;;;;;;2.44;100.00;102751.78;4719733;30;20065;-64
2023/01/29 08:05:48;;;;;;;27.35;21.13;;;;;;;2.38;100.00;102745.19;4719438;30;20048;-64
2023/01/29 08:08:15;;;;;;;26.02;21.67;;;;;;;2.34;99.54;102754.63;4719787;30;20148;-64
2023/01/29 08:10:43;;;;;;;30.17;24.38;;;;;;;2.30;98.60;102762.16;4675101;30;20057;-64
2023/01/29 08:13:11;;;;;;;27.63;22.45;;;;;;;2.29;98.67;102757.81;4719409;30;20049;-65
2023/01/29 08:15:41;;;;;;;25.90;18.23;;;;;;;2.32;99.65;102751.25;4703837;30;20065;-64
2023/01/29 08:18:09;;;;;;;23.63;16.98;;;;;;;2.33;99.08;102753.78;4719576;30;20065;-64
2023/01/29 08:20:36;;;;;;;24.02;18.17;;;;;;;2.35;100.00;102748.22;4718539;30;20065;-64
2023/01/29 08:23:12;;;;;;;24.67;18.17;;;;;;;2.41;100.00;102749.44;4718480;30;20111;-64
2023/01/29 08:25:39;;;;;;;23.83;18.05;;;;;;;2.40;100.00;102736.97;4717432;30;20068;-63
2023/01/29 08:28:07;;;;;;;23.35;17.08;;;;;;;2.44;100.00;102728.41;4719348;30;20049;-64
2023/01/29 08:30:36;;;;;;;22.40;17.33;;;;;;;2.47;100.00;102720.00;4720549;30;20077;-64
2023/01/29 08:33:04;;;;;;;25.33;18.27;;;;;;;2.56;100.00;102716.28;4719232;30;20053;-64
2023/01/29 08:35:32;;;;;;;21.42;13.30;;;;;;;2.76;100.00;102713.25;4717753;30;20115;-64
2023/01/29 08:38:02;;;;;;;20.75;12.85;;;;;;;2.75;100.00;102712.41;4716519;30;20053;-64
2023/01/29 08:40:42;;;;;;;23.90;15.48;;;;;;;2.79;100.00;102707.56;4706362;30;20065;-64
2023/01/29 08:43:11;;;;;;;19.75;15.68;;;;;;;2.87;100.00;102707.53;4698873;30;20069;-63
2023/01/29 08:45:43;;;;;;;21.70;15.93;;;;;;;2.81;100.00;102702.81;4684820;30;20152;-63
2023/01/29 08:48:11;;;;;;;27.25;20.67;;;;;;;2.73;100.00;102710.91;4683758;30;20058;-65
2023/01/29 08:50:38;;;;;;;23.42;19.35;;;;;;;2.63;100.00;102710.25;4684102;30;20133;-64
2023/01/29 08:53:07;;;;;;;16.85;11.70;;;;;;;2.69;100.00;102706.88;4683787;30;20058;-65
2023/01/29 08:55:39;;;;;;;22.90;17.90;;;;;;;2.52;100.00;102714.09;4696381;30;20124;-65
2023/01/29 08:58:08;;;;;;;28.13;22.70;;;;;;;2.47;100.00;102716.47;4683195;30;20527;-65
2023/01/29 09:00:37;;;;;;;22.05;17.33;;;;;;;2.52;100.00;102714.09;4696973;30;20069;-65
2023/01/29 09:03:06;;;;;;;29.70;16.08;;;;;;;2.64;100.00;102709.22;4696635;30;20077;-65
2023/01/29 09:05:35;;;;;;;29.80;20.77;;;;;;;2.65;100.00;102697.47;4682216;30;20108;-64
2023/01/29 09:08:03;;;;;;;26.95;17.15;;;;;;;2.74;100.00;102694.59;4691258;30;20515;-64
2023/01/29 09:10:31;;;;;;;28.45;16.13;;;;;;;2.82;100.00;102699.13;4695233;30;20467;-64
2023/01/29 09:12:59;;;;;;;26.17;16.90;;;;;;;2.89;100.00;102689.38;4695612;30;20061;-64
2023/01/29 09:15:27;;;;;;;25.83;17.60;;;;;;;2.91;100.00;102703.50;4694316;30;20062;-64
2023/01/29 09:17:56;;;;;;;26.40;16.58;;;;;;;2.83;100.00;102687.34;4683572;30;20058;-65
2023/01/29 09:20:23;;;;;;;24.45;18.00;;;;;;;2.81;100.00;102683.16;4682252;30;20085;-64
2023/01/29 09:22:52;;;;;;;26.30;16.58;;;;;;;2.78;100.00;102687.00;4683603;30;20579;-65
2023/01/29 09:25:20;;;;;;;26.48;19.58;;;;;;;2.74;100.00;102688.34;4694911;30;20061;-64
2023/01/29 09:27:48;;;;;;;25.25;17.20;;;;;;;2.74;100.00;102688.34;4682827;30;20408;-64
2023/01/29 09:30:16;;;;;;;27.80;21.27;;;;;;;2.77;100.00;102690.72;4682506;30;20057;-64
2023/01/29 09:32:44;;;;;;;25.13;14.82;;;;;;;2.84;100.00;102690.88;4682053;30;20054;-63
2023/01/29 09:35:22;;;;;;;25.08;17.65;;;;;;;2.71;100.00;102692.22;4668163;30;20148;-64
2023/01/29 09:37:50;;;;;;;26.65;19.17;;;;;;;2.76;100.00;102695.25;4681613;30;20093;-64
2023/01/29 09:40:26;;;;;;;25.00;18.55;;;;;;;2.78;100.00;102697.78;4689985;30;20079;-64
2023/01/29 09:43:02;;;;;;;24.02;15.52;;;;;;;2.82;100.00;102688.38;4717766;30;20053;-63
2023/01/29 09:45:30;;;;;;;29.15;18.50;;;;;;;2.79;100.00;102688.72;4717402;30;20423;-65
2023/01/29 09:48:04;;;;;;;23.98;18.27;;;;;;;2.82;100.00;102696.44;4713392;30;20089;-65
2023/01/29 09:50:35;;;;;;;24.45;15.80;;;;;;;2.80;100.00;102695.75;4684843;30;20559;-65
2023/01/29 09:53:20;;;;;;;24.85;16.88;;;;;;;2.86;100.00;102695.09;4713756;30;20415;-63
2023/01/29 09:56:16;;;;;;;22.73;15.27;;;;;;;2.90;100.00;102693.72;4714469;30;20479;-64
2023/01/29 09:58:44;;;;;;;21.27;15.13;;;;;;;2.90;100.00;102695.59;4702238;30;20140;-63
2023/01/29 10:01:23;;;;;;;22.88;16.75;;;;;;;2.90;100.00;102696.41;4702001;30;20061;-65
2023/01/29 10:04:18;;;;;;;21.35;13.82;;;;;;;2.94;100.00;102695.06;4687737;30;20065;-63
2023/01/29 10:06:46;;;;;;;21.85;10.98;;;;;;;2.91;100.00;102694.56;4716230;30;20107;-64
2023/01/29 10:09:37;;;;;;;23.10;16.85;;;;;;;2.89;100.00;102693.91;4717237;30;20049;-63
2023/01/29 10:12:07;;;;;;;21.77;13.45;;;;;;;2.88;100.00;102684.97;4710366;30;20072;-64
2023/01/29 10:14:58;;;;;;;22.20;16.08;;;;;;;2.82;100.00;102685.69;4714896;30;20143;-65
2023/01/29 10:17:32;;;;;;;20.85;14.90;;;;;;;2.88;100.00;102684.13;4722366;30;20061;-65
2023/01/29 10:20:24;;;;;;;22.40;13.48;;;;;;;2.95;100.00;102685.97;4720386;30;20387;-64
2023/01/29 10:23:03;;;;;;;23.63;17.45;;;;;;;2.89;100.00;102686.69;4724596;30;20458;-64
2023/01/29 10:25:33;;;;;;;20.92;13.32;;;;;;;2.91;100.00;102687.34;4710056;30;20084;-65
2023/01/29 10:28:01;;;;;;;18.00;7.40;;;;;;;3.12;100.00;102683.25;4719217;30;20057;-63
2023/01/29 10:30:33;;;;;;;20.67;11.77;;;;;;;3.28;100.00;102676.97;4721326;30;20061;-64
2023/01/29 10:33:05;;;;;;;22.80;16.08;;;;;;;3.47;100.00;102683.81;4716240;30;20064;-65
2023/01/29 10:36:01;;;;;;;16.23;7.57;;;;;;;3.40;100.00;102686.38;4698343;30;20059;-63
2023/01/29 10:38:32;;;;;;;;;;;;;;;3.22;100.00;102694.66;4695741;30;20140;-64
2023/01/29 10:41:10;;;;;;;21.95;12.90;;;;;;;3.34;100.00;102687.03;4699437;30;20428;-65
2023/01/29 10:43:38;;;;;;;19.88;11.30;;;;;;;3.54;100.00;102687.50;4698756;30;20102;-64
2023/01/29 10:46:11;;;;;;;17.70;11.45;;;;;;;3.32;100.00;102676.47;4707231;30;20107;-65
2023/01/29 10:48:48;;;;;;;23.23;16.52;;;;;;;3.18;100.00;102674.50;4714140;30;20061;-65
2023/01/29 10:51:27;;;;;;;20.05;13.48;;;;;;;3.12;100.00;102672.47;4719392;30;20056;-64
2023/01/29 10:54:27;;;;;;;17.92;11.40;;;;;;;3.37;100.00;102663.31;4704989;30;20052;-65
2023/01/29 10:57:15;;;;;;;22.05;17.13;;;;;;;3.02;100.00;102661.06;4700684;30;20478;-65
2023/01/29 10:59:54;;;;;;;23.73;16.55;;;;;;;2.82;100.00;102650.69;4702189;30;20058;-66
2023/01/29 11:02:22;;;;;;;24.13;18.20;;;;;;;2.74;99.15;102648.84;4705393;30;20057;-65
2023/01/29 11:04:50;;;;;;;26.00;17.77;;;;;;;2.72;97.75;102650.03;4703925;30;20061;-64
2023/01/29 11:07:19;;;;;;;19.42;12.02;;;;;;;2.87;100.00;102637.53;4704451;30;20057;-63
2023/01/29 11:09:55;;;;;;;19.75;11.10;;;;;;;3.01;100.00;102633.31;4719195;30;20811;-63
2023/01/29 11:12:29;;;;;;;26.25;15.73;;;;;;;3.22;100.00;102632.69;4691419;30;20049;-64
2023/01/29 11:15:04;;;;;;;21.65;16.67;;;;;;;3.03;98.95;102622.34;4720822;30;20049;-62
2023/01/29 11:17:32;;;;;;;21.98;16.90;;;;;;;2.87;96.50;102610.63;4719334;30;20140;-68
2023/01/29 11:20:00;;;;;;;23.58;17.27;;;;;;;2.82;95.46;102607.59;4710410;30;20065;-64
2023/01/29 11:22:29;;;;;;;23.10;18.02;;;;;;;2.81;95.49;102605.91;4725680;30;20057;-67
2023/01/29 11:25:18;;;;;;;24.67;17.02;;;;;;;2.81;94.72;102603.22;4724871;30;20120;-67
2023/01/29 11:27:49;;;;;;;20.65;10.15;;;;;;;3.26;100.00;102588.25;4692706;30;20057;-66
2023/01/29 11:30:22;;;;;;;21.52;16.23;;;;;;;3.14;97.23;102595.03;4733952;30;20076;-68
2023/01/29 11:32:57;;;;;;;23.60;16.38;;;;;;;3.01;94.29;102590.22;4738428;30;20085;-67
2023/01/29 11:35:26;;;;;;;22.98;15.95;;;;;;;3.03;94.37;102581.94;4716902;30;20059;-67
2023/01/29 11:38:17;;;;;;;22.70;15.95;;;;;;;2.95;93.68;102572.88;4713905;30;20128;-68
2023/01/29 11:40:45;;;;;;;21.08;15.00;;;;;;;2.95;93.42;102569.38;4728161;30;20636;-68
2023/01/29 11:43:30;;;;;;;17.00;10.98;;;;;;;3.14;97.10;102573.50;4696667;30;20133;-68
2023/01/29 11:46:04;;;;;;;19.83;10.63;;;;;;;3.21;97.40;102566.38;4725485;30;20057;-67
2023/01/29 11:48:44;;;;;;;19.60;10.10;;;;;;;3.34;100.00;102563.97;4677552;30;20112;-68
2023/01/29 11:51:24;;;;;;;15.70;8.20;;;;;;;3.73;100.00;102552.28;4705705;30;20065;-67
2023/01/29 11:53:58;;;;;;;17.83;10.45;;;;;;;3.71;100.00;102540.81;4705549;30;20517;-68
2023/01/29 11:56:41;;;;;;;17.77;11.88;;;;;;;3.58;100.00;102543.25;4692170;30;20053;-68
2023/01/29 11:59:43;;;;;;;20.70;14.27;;;;;;;3.69;100.00;102534.78;4683005;30;20060;-67
2023/01/29 12:02:25;;;;;;;20.98;12.77;;;;;;;3.53;100.00;102529.50;4718233;30;20053;-67
2023/01/29 12:04:55;;;;;;;20.67;15.35;;;;;;;3.30;96.74;102537.56;4720004;30;20096;-69
2023/01/29 12:07:22;;;;;;;20.88;15.77;;;;;;;3.15;93.85;102532.06;4719239;30;20148;-68
2023/01/29 12:09:56;;;;;;;20.48;15.88;;;;;;;3.07;92.89;102534.81;4713330;30;20072;-69
2023/01/29 12:12:39;;;;;;;23.83;16.63;;;;;;;3.02;92.24;102527.25;4718797;30;20420;-67